sensor_id;sensor_type;location;lat;lon;timestamp;temperature;humidity
69084;SHT31;56185;48.526;9.044;2024-01-30T00:01:37;1.50;86.64
69084;SHT31;56185;48.526;9.044;2024-01-30T00:04:02;1.51;86.59
69084;SHT31;56185;48.526;9.044;2024-01-30T00:06:28;1.37;87.25
69084;SHT31;56185;48.526;9.044;2024-01-30T00:08:53;1.38;87.77
69084;SHT31;56185;48.526;9.044;2024-01-30T00:11:18;1.47;87.40
69084;SHT31;56185;48.526;9.044;2024-01-30T00:13:43;1.61;86.45
69084;SHT31;56185;48.526;9.044;2024-01-30T00:16:20;1.75;85.97
69084;SHT31;56185;48.526;9.044;2024-01-30T00:18:45;1.78;86.11
69084;SHT31;56185;48.526;9.044;2024-01-30T00:21:10;1.61;85.94
69084;SHT31;56185;48.526;9.044;2024-01-30T00:23:36;1.65;86.15
69084;SHT31;56185;48.526;9.044;2024-01-30T00:26:01;1.76;85.39
69084;SHT31;56185;48.526;9.044;2024-01-30T00:28:26;1.54;86.67
69084;SHT31;56185;48.526;9.044;2024-01-30T00:30:51;1.43;86.54
69084;SHT31;56185;48.526;9.044;2024-01-30T00:33:17;1.51;86.44
69084;SHT31;56185;48.526;9.044;2024-01-30T00:35:42;1.59;86.41
69084;SHT31;56185;48.526;9.044;2024-01-30T00:38:07;1.57;86.63
69084;SHT31;56185;48.526;9.044;2024-01-30T00:40:32;1.52;86.53
69084;SHT31;56185;48.526;9.044;2024-01-30T00:42:57;1.51;86.77
69084;SHT31;56185;48.526;9.044;2024-01-30T00:45:23;1.57;86.34
69084;SHT31;56185;48.526;9.044;2024-01-30T00:47:51;1.55;86.60
69084;SHT31;56185;48.526;9.044;2024-01-30T00:50:19;1.43;87.27
69084;SHT31;56185;48.526;9.044;2024-01-30T00:52:44;1.47;86.38
69084;SHT31;56185;48.526;9.044;2024-01-30T00:55:09;1.55;86.16
69084;SHT31;56185;48.526;9.044;2024-01-30T00:57:35;1.58;86.19
69084;SHT31;56185;48.526;9.044;2024-01-30T01:00:00;1.51;86.58
69084;SHT31;56185;48.526;9.044;2024-01-30T01:02:25;1.43;87.26
69084;SHT31;56185;48.526;9.044;2024-01-30T01:04:50;1.34;87.52
69084;SHT31;56185;48.526;9.044;2024-01-30T01:07:16;1.52;87.46
69084;SHT31;56185;48.526;9.044;2024-01-30T01:09:41;1.52;86.69
69084;SHT31;56185;48.526;9.044;2024-01-30T01:12:06;1.47;86.91
69084;SHT31;56185;48.526;9.044;2024-01-30T01:14:32;1.43;87.01
69084;SHT31;56185;48.526;9.044;2024-01-30T01:16:57;1.46;86.82
69084;SHT31;56185;48.526;9.044;2024-01-30T01:19:22;1.52;86.74
69084;SHT31;56185;48.526;9.044;2024-01-30T01:21:47;1.50;86.65
69084;SHT31;56185;48.526;9.044;2024-01-30T01:24:13;1.48;86.75
69084;SHT31;56185;48.526;9.044;2024-01-30T01:26:38;1.43;87.08
69084;SHT31;56185;48.526;9.044;2024-01-30T01:29:03;1.48;86.80
69084;SHT31;56185;48.526;9.044;2024-01-30T01:31:28;1.43;86.60
69084;SHT31;56185;48.526;9.044;2024-01-30T01:33:54;1.50;86.62
69084;SHT31;56185;48.526;9.044;2024-01-30T01:36:19;1.48;86.50
69084;SHT31;56185;48.526;9.044;2024-01-30T01:38:44;1.48;87.03
69084;SHT31;56185;48.526;9.044;2024-01-30T01:41:09;1.48;87.01
69084;SHT31;56185;48.526;9.044;2024-01-30T01:43:35;1.47;86.89
69084;SHT31;56185;48.526;9.044;2024-01-30T01:46:00;1.26;88.07
69084;SHT31;56185;48.526;9.044;2024-01-30T01:48:26;1.24;88.39
69084;SHT31;56185;48.526;9.044;2024-01-30T01:50:51;1.33;87.98
69084;SHT31;56185;48.526;9.044;2024-01-30T01:53:17;1.38;87.80
69084;SHT31;56185;48.526;9.044;2024-01-30T01:55:43;1.44;87.37
69084;SHT31;56185;48.526;9.044;2024-01-30T01:58:09;1.31;87.97
69084;SHT31;56185;48.526;9.044;2024-01-30T02:00:37;1.46;87.11
69084;SHT31;56185;48.526;9.044;2024-01-30T02:03:06;1.44;87.26
69084;SHT31;56185;48.526;9.044;2024-01-30T02:05:33;1.41;87.39
69084;SHT31;56185;48.526;9.044;2024-01-30T02:07:59;1.47;87.24
69084;SHT31;56185;48.526;9.044;2024-01-30T02:10:24;1.30;86.87
69084;SHT31;56185;48.526;9.044;2024-01-30T02:12:49;1.31;86.99
69084;SHT31;56185;48.526;9.044;2024-01-30T02:15:15;1.31;86.92
69084;SHT31;56185;48.526;9.044;2024-01-30T02:17:40;1.33;86.69
69084;SHT31;56185;48.526;9.044;2024-01-30T02:20:05;1.31;86.72
69084;SHT31;56185;48.526;9.044;2024-01-30T02:22:32;1.27;86.57
69084;SHT31;56185;48.526;9.044;2024-01-30T02:24:59;1.22;86.47
69084;SHT31;56185;48.526;9.044;2024-01-30T02:27:24;1.23;86.65
69084;SHT31;56185;48.526;9.044;2024-01-30T02:29:49;1.24;86.48
69084;SHT31;56185;48.526;9.044;2024-01-30T02:32:15;1.26;87.13
69084;SHT31;56185;48.526;9.044;2024-01-30T02:34:40;1.26;86.95
69084;SHT31;56185;48.526;9.044;2024-01-30T02:37:05;1.20;87.41
69084;SHT31;56185;48.526;9.044;2024-01-30T02:39:31;1.31;86.96
69084;SHT31;56185;48.526;9.044;2024-01-30T02:41:56;1.22;86.72
69084;SHT31;56185;48.526;9.044;2024-01-30T02:44:21;1.23;87.03
69084;SHT31;56185;48.526;9.044;2024-01-30T02:46:46;1.12;87.70
69084;SHT31;56185;48.526;9.044;2024-01-30T02:49:11;1.15;88.19
69084;SHT31;56185;48.526;9.044;2024-01-30T02:51:37;1.15;87.38
69084;SHT31;56185;48.526;9.044;2024-01-30T02:54:02;1.12;87.29
69084;SHT31;56185;48.526;9.044;2024-01-30T02:56:28;1.10;87.03
69084;SHT31;56185;48.526;9.044;2024-01-30T02:58:53;0.96;87.64
69084;SHT31;56185;48.526;9.044;2024-01-30T03:01:18;0.90;87.86
69084;SHT31;56185;48.526;9.044;2024-01-30T03:03:43;0.90;87.94
69084;SHT31;56185;48.526;9.044;2024-01-30T03:06:08;0.89;87.83
69084;SHT31;56185;48.526;9.044;2024-01-30T03:08:34;0.96;87.62
69084;SHT31;56185;48.526;9.044;2024-01-30T03:11:00;0.86;88.54
69084;SHT31;56185;48.526;9.044;2024-01-30T03:13:25;0.80;88.20
69084;SHT31;56185;48.526;9.044;2024-01-30T03:15:50;0.80;87.94
69084;SHT31;56185;48.526;9.044;2024-01-30T03:18:16;0.89;87.98
69084;SHT31;56185;48.526;9.044;2024-01-30T03:20:41;0.92;87.63
69084;SHT31;56185;48.526;9.044;2024-01-30T03:23:06;0.79;88.17
69084;SHT31;56185;48.526;9.044;2024-01-30T03:25:32;0.85;87.68
69084;SHT31;56185;48.526;9.044;2024-01-30T03:27:57;0.95;87.43
69084;SHT31;56185;48.526;9.044;2024-01-30T03:30:22;0.85;87.50
69084;SHT31;56185;48.526;9.044;2024-01-30T03:32:47;0.90;86.49
69084;SHT31;56185;48.526;9.044;2024-01-30T03:35:13;0.83;86.41
69084;SHT31;56185;48.526;9.044;2024-01-30T03:37:38;0.95;86.23
69084;SHT31;56185;48.526;9.044;2024-01-30T03:40:03;0.78;86.32
69084;SHT31;56185;48.526;9.044;2024-01-30T03:42:29;0.83;86.48
69084;SHT31;56185;48.526;9.044;2024-01-30T03:44:54;0.82;86.25
69084;SHT31;56185;48.526;9.044;2024-01-30T03:47:19;0.80;85.98
69084;SHT31;56185;48.526;9.044;2024-01-30T03:49:45;0.75;86.14
69084;SHT31;56185;48.526;9.044;2024-01-30T03:52:10;0.70;86.15
69084;SHT31;56185;48.526;9.044;2024-01-30T03:54:35;0.62;86.92
69084;SHT31;56185;48.526;9.044;2024-01-30T03:57:00;0.72;86.46
69084;SHT31;56185;48.526;9.044;2024-01-30T03:59:26;0.58;87.49
69084;SHT31;56185;48.526;9.044;2024-01-30T04:01:51;0.58;86.67
69084;SHT31;56185;48.526;9.044;2024-01-30T04:04:17;0.54;86.45
69084;SHT31;56185;48.526;9.044;2024-01-30T04:06:43;0.62;86.55
69084;SHT31;56185;48.526;9.044;2024-01-30T04:09:08;0.58;86.52
69084;SHT31;56185;48.526;9.044;2024-01-30T04:11:34;0.61;87.01
69084;SHT31;56185;48.526;9.044;2024-01-30T04:14:00;0.64;87.11
69084;SHT31;56185;48.526;9.044;2024-01-30T04:16:25;0.69;87.43
69084;SHT31;56185;48.526;9.044;2024-01-30T04:18:51;0.59;87.36
69084;SHT31;56185;48.526;9.044;2024-01-30T04:21:16;0.62;87.67
69084;SHT31;56185;48.526;9.044;2024-01-30T04:23:42;0.64;87.71
69084;SHT31;56185;48.526;9.044;2024-01-30T04:26:07;0.45;88.96
69084;SHT31;56185;48.526;9.044;2024-01-30T04:28:34;0.61;87.87
69084;SHT31;56185;48.526;9.044;2024-01-30T04:31:00;0.68;87.82
69084;SHT31;56185;48.526;9.044;2024-01-30T04:33:25;0.76;87.86
69084;SHT31;56185;48.526;9.044;2024-01-30T04:35:50;0.76;87.43
69084;SHT31;56185;48.526;9.044;2024-01-30T04:38:15;0.73;87.39
69084;SHT31;56185;48.526;9.044;2024-01-30T04:40:41;0.72;87.36
69084;SHT31;56185;48.526;9.044;2024-01-30T04:43:06;0.61;87.24
69084;SHT31;56185;48.526;9.044;2024-01-30T04:45:31;0.69;88.09
69084;SHT31;56185;48.526;9.044;2024-01-30T04:47:57;0.66;87.56
69084;SHT31;56185;48.526;9.044;2024-01-30T04:50:23;0.69;87.39
69084;SHT31;56185;48.526;9.044;2024-01-30T04:52:48;0.79;86.57
69084;SHT31;56185;48.526;9.044;2024-01-30T04:55:14;0.85;86.16
69084;SHT31;56185;48.526;9.044;2024-01-30T04:57:39;0.79;86.45
69084;SHT31;56185;48.526;9.044;2024-01-30T05:00:05;0.73;86.97
69084;SHT31;56185;48.526;9.044;2024-01-30T05:02:30;0.62;87.01
69084;SHT31;56185;48.526;9.044;2024-01-30T05:04:56;0.42;87.41
69084;SHT31;56185;48.526;9.044;2024-01-30T05:07:21;0.41;87.44
69084;SHT31;56185;48.526;9.044;2024-01-30T05:09:46;0.49;87.78
69084;SHT31;56185;48.526;9.044;2024-01-30T05:12:11;0.55;87.46
69084;SHT31;56185;48.526;9.044;2024-01-30T05:14:37;0.49;87.42
69084;SHT31;56185;48.526;9.044;2024-01-30T05:17:02;0.49;87.17
69084;SHT31;56185;48.526;9.044;2024-01-30T05:19:27;0.44;87.69
69084;SHT31;56185;48.526;9.044;2024-01-30T05:21:52;0.57;87.05
69084;SHT31;56185;48.526;9.044;2024-01-30T05:24:18;0.49;87.35
69084;SHT31;56185;48.526;9.044;2024-01-30T05:26:43;0.51;87.22
69084;SHT31;56185;48.526;9.044;2024-01-30T05:29:08;0.65;86.19
69084;SHT31;56185;48.526;9.044;2024-01-30T05:31:34;0.75;85.89
69084;SHT31;56185;48.526;9.044;2024-01-30T05:33:59;0.72;85.42
69084;SHT31;56185;48.526;9.044;2024-01-30T05:36:25;0.55;85.36
69084;SHT31;56185;48.526;9.044;2024-01-30T05:38:50;0.42;86.03
69084;SHT31;56185;48.526;9.044;2024-01-30T05:41:15;0.35;86.41
69084;SHT31;56185;48.526;9.044;2024-01-30T05:43:47;0.22;86.76
69084;SHT31;56185;48.526;9.044;2024-01-30T05:46:12;0.25;85.74
69084;SHT31;56185;48.526;9.044;2024-01-30T05:48:37;0.18;86.46
69084;SHT31;56185;48.526;9.044;2024-01-30T05:51:03;0.27;86.05
69084;SHT31;56185;48.526;9.044;2024-01-30T05:53:28;0.15;86.33
69084;SHT31;56185;48.526;9.044;2024-01-30T05:55:53;0.01;87.60
69084;SHT31;56185;48.526;9.044;2024-01-30T05:58:25;0.03;87.42
69084;SHT31;56185;48.526;9.044;2024-01-30T06:00:51;0.10;87.16
69084;SHT31;56185;48.526;9.044;2024-01-30T06:03:16;0.11;87.50
69084;SHT31;56185;48.526;9.044;2024-01-30T06:05:41;0.28;87.17
69084;SHT31;56185;48.526;9.044;2024-01-30T06:08:06;0.27;86.95
69084;SHT31;56185;48.526;9.044;2024-01-30T06:10:32;0.35;86.86
69084;SHT31;56185;48.526;9.044;2024-01-30T06:12:57;0.18;86.79
69084;SHT31;56185;48.526;9.044;2024-01-30T06:15:22;0.04;87.26
69084;SHT31;56185;48.526;9.044;2024-01-30T06:17:47;0.18;86.67
69084;SHT31;56185;48.526;9.044;2024-01-30T06:20:13;0.17;86.14
69084;SHT31;56185;48.526;9.044;2024-01-30T06:22:38;0.06;86.24
69084;SHT31;56185;48.526;9.044;2024-01-30T06:25:03;0.11;85.93
69084;SHT31;56185;48.526;9.044;2024-01-30T06:27:29;0.14;85.78
69084;SHT31;56185;48.526;9.044;2024-01-30T06:29:54;0.17;85.66
69084;SHT31;56185;48.526;9.044;2024-01-30T06:32:20;0.13;85.75
69084;SHT31;56185;48.526;9.044;2024-01-30T06:34:45;-0.03;85.93
69084;SHT31;56185;48.526;9.044;2024-01-30T06:37:10;0.07;85.24
69084;SHT31;56185;48.526;9.044;2024-01-30T06:39:36;0.00;86.03
69084;SHT31;56185;48.526;9.044;2024-01-30T06:42:01;-0.09;86.29
69084;SHT31;56185;48.526;9.044;2024-01-30T06:44:26;-0.09;86.48
69084;SHT31;56185;48.526;9.044;2024-01-30T06:46:52;-0.02;86.83
69084;SHT31;56185;48.526;9.044;2024-01-30T06:49:17;0.06;86.66
69084;SHT31;56185;48.526;9.044;2024-01-30T06:51:43;0.03;87.20
69084;SHT31;56185;48.526;9.044;2024-01-30T06:54:08;0.00;87.58
69084;SHT31;56185;48.526;9.044;2024-01-30T06:56:33;0.08;87.49
69084;SHT31;56185;48.526;9.044;2024-01-30T06:58:59;0.15;87.39
69084;SHT31;56185;48.526;9.044;2024-01-30T07:01:30;0.22;86.87
69084;SHT31;56185;48.526;9.044;2024-01-30T07:03:57;0.24;86.59
69084;SHT31;56185;48.526;9.044;2024-01-30T07:06:22;0.21;86.39
69084;SHT31;56185;48.526;9.044;2024-01-30T07:08:49;0.20;86.15
69084;SHT31;56185;48.526;9.044;2024-01-30T07:11:21;0.11;86.45
69084;SHT31;56185;48.526;9.044;2024-01-30T07:13:46;0.15;86.41
69084;SHT31;56185;48.526;9.044;2024-01-30T07:16:12;0.25;87.07
69084;SHT31;56185;48.526;9.044;2024-01-30T07:18:37;0.22;86.63
69084;SHT31;56185;48.526;9.044;2024-01-30T07:21:03;0.32;86.36
69084;SHT31;56185;48.526;9.044;2024-01-30T07:23:28;0.37;86.32
69084;SHT31;56185;48.526;9.044;2024-01-30T07:25:53;0.38;86.39
69084;SHT31;56185;48.526;9.044;2024-01-30T07:28:18;0.45;86.97
69084;SHT31;56185;48.526;9.044;2024-01-30T07:30:44;0.52;87.21
69084;SHT31;56185;48.526;9.044;2024-01-30T07:33:09;0.68;86.56
69084;SHT31;56185;48.526;9.044;2024-01-30T07:35:35;0.75;85.11
69084;SHT31;56185;48.526;9.044;2024-01-30T07:38:00;0.69;84.79
69084;SHT31;56185;48.526;9.044;2024-01-30T07:40:26;0.76;84.40
69084;SHT31;56185;48.526;9.044;2024-01-30T07:42:53;0.75;84.51
69084;SHT31;56185;48.526;9.044;2024-01-30T07:45:21;0.61;85.38
69084;SHT31;56185;48.526;9.044;2024-01-30T07:47:46;0.70;85.36
69084;SHT31;56185;48.526;9.044;2024-01-30T07:50:12;0.86;85.31
69084;SHT31;56185;48.526;9.044;2024-01-30T07:52:37;0.83;84.57
69084;SHT31;56185;48.526;9.044;2024-01-30T07:55:02;0.93;84.68
69084;SHT31;56185;48.526;9.044;2024-01-30T07:57:30;0.96;84.65
69084;SHT31;56185;48.526;9.044;2024-01-30T07:59:56;1.07;84.90
69084;SHT31;56185;48.526;9.044;2024-01-30T08:02:21;1.17;84.35
69084;SHT31;56185;48.526;9.044;2024-01-30T08:04:46;1.20;84.32
69084;SHT31;56185;48.526;9.044;2024-01-30T08:07:11;1.26;84.02
69084;SHT31;56185;48.526;9.044;2024-01-30T08:09:37;1.30;83.68
69084;SHT31;56185;48.526;9.044;2024-01-30T08:12:02;1.41;83.79
69084;SHT31;56185;48.526;9.044;2024-01-30T08:14:28;1.48;83.88
69084;SHT31;56185;48.526;9.044;2024-01-30T08:16:53;1.55;83.51
69084;SHT31;56185;48.526;9.044;2024-01-30T08:19:18;1.52;83.51
69084;SHT31;56185;48.526;9.044;2024-01-30T08:21:44;1.61;83.07
69084;SHT31;56185;48.526;9.044;2024-01-30T08:24:09;1.65;83.44
69084;SHT31;56185;48.526;9.044;2024-01-30T08:26:34;1.69;83.82
69084;SHT31;56185;48.526;9.044;2024-01-30T08:29:00;1.72;83.92
69084;SHT31;56185;48.526;9.044;2024-01-30T08:31:26;1.81;83.45
69084;SHT31;56185;48.526;9.044;2024-01-30T08:33:52;1.78;83.74
69084;SHT31;56185;48.526;9.044;2024-01-30T08:36:17;1.89;83.58
69084;SHT31;56185;48.526;9.044;2024-01-30T08:38:42;1.92;83.53
69084;SHT31;56185;48.526;9.044;2024-01-30T08:41:08;1.94;83.29
69084;SHT31;56185;48.526;9.044;2024-01-30T08:43:33;1.95;82.98
69084;SHT31;56185;48.526;9.044;2024-01-30T08:45:59;1.92;83.13
69084;SHT31;56185;48.526;9.044;2024-01-30T08:48:24;1.91;83.03
69084;SHT31;56185;48.526;9.044;2024-01-30T08:50:50;1.89;83.24
69084;SHT31;56185;48.526;9.044;2024-01-30T08:53:15;1.92;83.69
69084;SHT31;56185;48.526;9.044;2024-01-30T08:55:40;1.94;83.38
69084;SHT31;56185;48.526;9.044;2024-01-30T08:58:05;1.91;83.83
69084;SHT31;56185;48.526;9.044;2024-01-30T09:00:33;1.88;84.35
69084;SHT31;56185;48.526;9.044;2024-01-30T09:02:58;1.94;84.09
69084;SHT31;56185;48.526;9.044;2024-01-30T09:05:23;2.03;84.24
69084;SHT31;56185;48.526;9.044;2024-01-30T09:07:49;2.09;84.21
69084;SHT31;56185;48.526;9.044;2024-01-30T09:10:14;2.13;83.79
69084;SHT31;56185;48.526;9.044;2024-01-30T09:12:39;2.20;83.86
69084;SHT31;56185;48.526;9.044;2024-01-30T09:15:05;2.30;83.01
69084;SHT31;56185;48.526;9.044;2024-01-30T09:17:30;2.33;83.13
69084;SHT31;56185;48.526;9.044;2024-01-30T09:19:55;2.46;83.30
69084;SHT31;56185;48.526;9.044;2024-01-30T09:22:20;2.43;83.60
69084;SHT31;56185;48.526;9.044;2024-01-30T09:24:46;2.57;84.07
69084;SHT31;56185;48.526;9.044;2024-01-30T09:27:11;2.65;84.54
69084;SHT31;56185;48.526;9.044;2024-01-30T09:29:36;2.74;83.71
69084;SHT31;56185;48.526;9.044;2024-01-30T09:32:02;2.85;82.93
69084;SHT31;56185;48.526;9.044;2024-01-30T09:34:27;2.92;82.96
69084;SHT31;56185;48.526;9.044;2024-01-30T09:37:01;2.95;83.19
69084;SHT31;56185;48.526;9.044;2024-01-30T09:39:26;3.09;82.46
69084;SHT31;56185;48.526;9.044;2024-01-30T09:42:00;3.11;82.62
69084;SHT31;56185;48.526;9.044;2024-01-30T09:44:28;3.22;82.23
69084;SHT31;56185;48.526;9.044;2024-01-30T09:46:54;3.30;81.97
69084;SHT31;56185;48.526;9.044;2024-01-30T09:49:20;3.37;82.14
69084;SHT31;56185;48.526;9.044;2024-01-30T09:51:46;3.42;82.19
69084;SHT31;56185;48.526;9.044;2024-01-30T09:54:13;3.53;82.79
69084;SHT31;56185;48.526;9.044;2024-01-30T09:56:39;3.63;81.74
69084;SHT31;56185;48.526;9.044;2024-01-30T10:17:08;3.85;82.29
69084;SHT31;56185;48.526;9.044;2024-01-30T10:19:33;3.98;82.11
69084;SHT31;56185;48.526;9.044;2024-01-30T10:22:00;4.08;81.94
69084;SHT31;56185;48.526;9.044;2024-01-30T10:24:26;4.09;82.25
69084;SHT31;56185;48.526;9.044;2024-01-30T10:26:51;4.18;82.31
69084;SHT31;56185;48.526;9.044;2024-01-30T10:29:17;4.29;82.03
69084;SHT31;56185;48.526;9.044;2024-01-30T10:31:42;4.44;81.49
69084;SHT31;56185;48.526;9.044;2024-01-30T10:34:07;4.55;81.16
69084;SHT31;56185;48.526;9.044;2024-01-30T10:36:39;4.57;81.04
69084;SHT31;56185;48.526;9.044;2024-01-30T10:39:06;4.60;80.55
69084;SHT31;56185;48.526;9.044;2024-01-30T10:41:38;4.70;79.60
69084;SHT31;56185;48.526;9.044;2024-01-30T10:44:18;4.63;80.10
69084;SHT31;56185;48.526;9.044;2024-01-30T10:46:45;4.67;80.27
69084;SHT31;56185;48.526;9.044;2024-01-30T10:49:13;4.77;80.25
69084;SHT31;56185;48.526;9.044;2024-01-30T10:51:39;4.80;80.29
69084;SHT31;56185;48.526;9.044;2024-01-30T10:54:06;4.79;80.47
69084;SHT31;56185;48.526;9.044;2024-01-30T10:56:32;4.90;80.31
69084;SHT31;56185;48.526;9.044;2024-01-30T10:58:58;5.04;80.03
69084;SHT31;56185;48.526;9.044;2024-01-30T11:01:25;5.14;79.81
69084;SHT31;56185;48.526;9.044;2024-01-30T11:03:51;5.23;79.28
69084;SHT31;56185;48.526;9.044;2024-01-30T11:06:17;5.28;79.29
69084;SHT31;56185;48.526;9.044;2024-01-30T11:08:43;5.38;79.46
69084;SHT31;56185;48.526;9.044;2024-01-30T11:11:09;5.44;79.39
69084;SHT31;56185;48.526;9.044;2024-01-30T11:13:35;5.52;79.06
69084;SHT31;56185;48.526;9.044;2024-01-30T11:16:04;5.51;79.27
69084;SHT31;56185;48.526;9.044;2024-01-30T11:18:30;5.49;79.66
69084;SHT31;56185;48.526;9.044;2024-01-30T11:20:57;5.56;79.28
69084;SHT31;56185;48.526;9.044;2024-01-30T11:23:22;5.69;78.96
69084;SHT31;56185;48.526;9.044;2024-01-30T11:25:48;5.82;78.42
69084;SHT31;56185;48.526;9.044;2024-01-30T11:28:16;5.89;78.45
69084;SHT31;56185;48.526;9.044;2024-01-30T11:30:42;5.93;78.28
69084;SHT31;56185;48.526;9.044;2024-01-30T11:33:12;5.85;78.92
69084;SHT31;56185;48.526;9.044;2024-01-30T11:35:39;5.93;78.23
69084;SHT31;56185;48.526;9.044;2024-01-30T11:38:06;6.03;77.75
69084;SHT31;56185;48.526;9.044;2024-01-30T11:40:32;6.13;78.24
69084;SHT31;56185;48.526;9.044;2024-01-30T11:43:02;6.27;77.73
69084;SHT31;56185;48.526;9.044;2024-01-30T11:45:27;6.33;77.85
69084;SHT31;56185;48.526;9.044;2024-01-30T11:47:53;6.30;78.35
69084;SHT31;56185;48.526;9.044;2024-01-30T11:50:19;6.40;78.21
69084;SHT31;56185;48.526;9.044;2024-01-30T11:52:45;6.46;78.23
69084;SHT31;56185;48.526;9.044;2024-01-30T11:55:10;6.55;77.80
69084;SHT31;56185;48.526;9.044;2024-01-30T11:57:36;6.62;77.54
69084;SHT31;56185;48.526;9.044;2024-01-30T12:00:01;6.62;75.49
69084;SHT31;56185;48.526;9.044;2024-01-30T12:02:27;6.78;75.32
69084;SHT31;56185;48.526;9.044;2024-01-30T12:04:52;6.91;74.07
69084;SHT31;56185;48.526;9.044;2024-01-30T12:07:17;7.10;73.60
69084;SHT31;56185;48.526;9.044;2024-01-30T12:09:52;7.17;74.24
69084;SHT31;56185;48.526;9.044;2024-01-30T12:12:17;7.24;74.41
69084;SHT31;56185;48.526;9.044;2024-01-30T12:14:42;7.33;73.88
69084;SHT31;56185;48.526;9.044;2024-01-30T12:17:08;7.46;72.43
69084;SHT31;56185;48.526;9.044;2024-01-30T12:19:33;7.50;72.96
69084;SHT31;56185;48.526;9.044;2024-01-30T12:21:58;7.54;72.00
69084;SHT31;56185;48.526;9.044;2024-01-30T12:24:24;7.53;72.46
69084;SHT31;56185;48.526;9.044;2024-01-30T12:26:50;7.55;72.60
69084;SHT31;56185;48.526;9.044;2024-01-30T12:29:15;7.60;72.93
69084;SHT31;56185;48.526;9.044;2024-01-30T12:31:42;7.75;71.72
69084;SHT31;56185;48.526;9.044;2024-01-30T12:34:07;7.84;71.22
69084;SHT31;56185;48.526;9.044;2024-01-30T12:36:34;7.91;70.75
69084;SHT31;56185;48.526;9.044;2024-01-30T12:38:59;7.91;71.25
69084;SHT31;56185;48.526;9.044;2024-01-30T12:41:25;7.95;70.81
69084;SHT31;56185;48.526;9.044;2024-01-30T12:43:50;8.07;70.08
69084;SHT31;56185;48.526;9.044;2024-01-30T12:46:17;8.22;70.39
69084;SHT31;56185;48.526;9.044;2024-01-30T12:48:42;8.29;70.58
69084;SHT31;56185;48.526;9.044;2024-01-30T12:51:07;8.32;69.92
69084;SHT31;56185;48.526;9.044;2024-01-30T12:53:33;8.42;69.44
69084;SHT31;56185;48.526;9.044;2024-01-30T12:55:58;8.46;69.76
69084;SHT31;56185;48.526;9.044;2024-01-30T12:58:24;8.44;69.99
69084;SHT31;56185;48.526;9.044;2024-01-30T13:00:49;8.44;70.58
69084;SHT31;56185;48.526;9.044;2024-01-30T13:03:14;8.44;70.56
69084;SHT31;56185;48.526;9.044;2024-01-30T13:05:40;8.43;70.65
69084;SHT31;56185;48.526;9.044;2024-01-30T13:08:05;8.53;69.95
69084;SHT31;56185;48.526;9.044;2024-01-30T13:10:30;8.57;69.72
69084;SHT31;56185;48.526;9.044;2024-01-30T13:12:56;8.56;70.05
69084;SHT31;56185;48.526;9.044;2024-01-30T13:15:21;8.67;69.30
69084;SHT31;56185;48.526;9.044;2024-01-30T13:17:46;8.64;69.61
69084;SHT31;56185;48.526;9.044;2024-01-30T13:20:11;8.73;69.69
69084;SHT31;56185;48.526;9.044;2024-01-30T13:22:37;8.73;69.90
69084;SHT31;56185;48.526;9.044;2024-01-30T13:25:02;8.78;70.21
69084;SHT31;56185;48.526;9.044;2024-01-30T13:27:27;8.97;69.88
69084;SHT31;56185;48.526;9.044;2024-01-30T13:29:53;9.02;69.22
69084;SHT31;56185;48.526;9.044;2024-01-30T13:32:18;9.08;69.37
69084;SHT31;56185;48.526;9.044;2024-01-30T13:34:43;9.14;69.77
69084;SHT31;56185;48.526;9.044;2024-01-30T13:37:09;9.23;70.03
69084;SHT31;56185;48.526;9.044;2024-01-30T13:39:34;9.29;70.07
69084;SHT31;56185;48.526;9.044;2024-01-30T13:42:00;9.38;69.10
69084;SHT31;56185;48.526;9.044;2024-01-30T13:44:25;9.36;68.83
69084;SHT31;56185;48.526;9.044;2024-01-30T13:46:50;9.43;68.84
69084;SHT31;56185;48.526;9.044;2024-01-30T13:49:15;9.50;69.31
69084;SHT31;56185;48.526;9.044;2024-01-30T13:51:41;9.57;69.20
69084;SHT31;56185;48.526;9.044;2024-01-30T13:54:06;9.62;68.74
69084;SHT31;56185;48.526;9.044;2024-01-30T13:56:31;9.57;68.92
69084;SHT31;56185;48.526;9.044;2024-01-30T13:58:56;9.66;69.72
69084;SHT31;56185;48.526;9.044;2024-01-30T14:01:22;9.69;69.18
69084;SHT31;56185;48.526;9.044;2024-01-30T14:03:47;9.90;67.44
69084;SHT31;56185;48.526;9.044;2024-01-30T14:06:13;10.00;67.08
69084;SHT31;56185;48.526;9.044;2024-01-30T14:08:42;10.02;67.78
69084;SHT31;56185;48.526;9.044;2024-01-30T14:11:07;10.11;68.20
69084;SHT31;56185;48.526;9.044;2024-01-30T14:13:32;10.15;67.37
69084;SHT31;56185;48.526;9.044;2024-01-30T14:15:58;10.21;66.60
69084;SHT31;56185;48.526;9.044;2024-01-30T14:18:23;10.30;66.85
69084;SHT31;56185;48.526;9.044;2024-01-30T14:20:48;10.39;66.45
69084;SHT31;56185;48.526;9.044;2024-01-30T14:23:17;10.41;67.66
69084;SHT31;56185;48.526;9.044;2024-01-30T14:25:43;10.48;67.95
69084;SHT31;56185;48.526;9.044;2024-01-30T14:28:08;10.45;66.92
69084;SHT31;56185;48.526;9.044;2024-01-30T14:30:34;10.53;66.97
69084;SHT31;56185;48.526;9.044;2024-01-30T14:33:02;10.63;66.51
69084;SHT31;56185;48.526;9.044;2024-01-30T14:35:27;10.62;67.41
69084;SHT31;56185;48.526;9.044;2024-01-30T14:37:53;10.72;68.18
69084;SHT31;56185;48.526;9.044;2024-01-30T14:40:18;10.68;67.26
69084;SHT31;56185;48.526;9.044;2024-01-30T14:42:46;10.80;66.63
69084;SHT31;56185;48.526;9.044;2024-01-30T14:45:12;10.63;68.57
69084;SHT31;56185;48.526;9.044;2024-01-30T14:47:37;10.55;69.23
69084;SHT31;56185;48.526;9.044;2024-01-30T14:50:03;10.52;69.31
69084;SHT31;56185;48.526;9.044;2024-01-30T14:52:29;10.51;70.18
69084;SHT31;56185;48.526;9.044;2024-01-30T14:54:54;10.51;70.10
69084;SHT31;56185;48.526;9.044;2024-01-30T14:57:19;10.48;70.61
69084;SHT31;56185;48.526;9.044;2024-01-30T14:59:45;10.48;70.97
69084;SHT31;56185;48.526;9.044;2024-01-30T15:02:10;10.42;71.00
69084;SHT31;56185;48.526;9.044;2024-01-30T15:04:35;10.35;71.50
69084;SHT31;56185;48.526;9.044;2024-01-30T15:07:01;10.38;71.39
69084;SHT31;56185;48.526;9.044;2024-01-30T15:09:26;10.32;71.14
69084;SHT31;56185;48.526;9.044;2024-01-30T15:11:51;10.07;72.41
69084;SHT31;56185;48.526;9.044;2024-01-30T15:14:17;10.04;73.11
69084;SHT31;56185;48.526;9.044;2024-01-30T15:16:44;9.83;74.01
69084;SHT31;56185;48.526;9.044;2024-01-30T15:19:10;9.87;73.67
69084;SHT31;56185;48.526;9.044;2024-01-30T15:21:35;9.76;74.03
69084;SHT31;56185;48.526;9.044;2024-01-30T15:24:04;9.74;73.73
69084;SHT31;56185;48.526;9.044;2024-01-30T15:26:29;9.59;73.96
69084;SHT31;56185;48.526;9.044;2024-01-30T15:28:57;9.67;73.73
69084;SHT31;56185;48.526;9.044;2024-01-30T15:31:22;9.64;73.60
69084;SHT31;56185;48.526;9.044;2024-01-30T15:33:47;9.66;73.91
69084;SHT31;56185;48.526;9.044;2024-01-30T15:36:13;9.39;73.92
69084;SHT31;56185;48.526;9.044;2024-01-30T15:38:38;9.33;74.21
69084;SHT31;56185;48.526;9.044;2024-01-30T15:41:06;9.52;73.80
69084;SHT31;56185;48.526;9.044;2024-01-30T15:43:32;9.47;73.10
69084;SHT31;56185;48.526;9.044;2024-01-30T15:46:00;9.32;73.05
69084;SHT31;56185;48.526;9.044;2024-01-30T15:48:32;9.19;73.67
69084;SHT31;56185;48.526;9.044;2024-01-30T15:51:05;9.38;73.30
69084;SHT31;56185;48.526;9.044;2024-01-30T15:53:31;9.21;73.57